Deer Wells, New York
Current Conditions -  °F | °C
As of 10:56 PM on Monday 22 Dec 2014 (Local Time) from KISP Reporting Station
Light Rain Light Rain  
Wind Chill: 41°   Ceiling: 900
Heat Index: 46°   Visibility: 8mi
Dew Point: 43°   Wind: 10mph
Humidity: 89%   Direction: 80°E
Pressure: 30.19"   Gusts: NA
Location:  40.8903°N, 73.169°W
Report Text: KISP 230356Z 08009KT 8SM -RA BKN009 OVC016 08/06 A3019 RMK AO2 DZE06RAB43 SLP223 P0001 T00780061
Loading
Personal Weather Stations






























Interactive Weather Map New forecast layout! Learn more

10-Day Weather Forecast

Advertisements
Track Severe Weather on mobile